Time;durP1;ratioP1;P1;durP2;ratioP2;P2;SDS_P1;SDS_P2;PMS_P1;PMS_P2;Temp;Humidity;BMP_temperature;BMP_pressure;BME280_temperature;BME280_humidity;BME280_pressure;Samples;Min_cycle;Max_cycle;Signal;HPM_P1;HPM_P2
2021/08/04 00:00:57;;;;;;;;;;;24.00;48.30;;;;;;1599282;73;765;-68
2021/08/04 00:02:59;;;;;;;;;;;24.00;48.40;;;;;;1595341;73;1112;-67
2021/08/04 00:05:01;;;;;;;;;;;24.00;48.40;;;;;;1588485;73;750;-67
2021/08/04 00:07:03;;;;;;;;;;;24.00;48.40;;;;;;1604997;73;771;-67
2021/08/04 00:09:05;;;;;;;;;;;24.00;48.40;;;;;;1597121;73;710;-67
2021/08/04 00:11:06;;;;;;;;;;;24.00;48.30;;;;;;1603190;73;747;-68
2021/08/04 00:13:08;;;;;;;;;;;24.00;48.50;;;;;;1609249;73;1119;-67
2021/08/04 00:15:11;;;;;;;;;;;24.00;48.50;;;;;;1590988;73;758;-68
2021/08/04 00:17:13;;;;;;;;;;;24.00;48.40;;;;;;1597963;73;1928;-67
2021/08/04 00:19:15;;;;;;;;;;;24.00;48.30;;;;;;1586272;73;893;-66
2021/08/04 00:21:16;;;;;;;;;;;24.00;48.30;;;;;;1598186;73;748;-67
2021/08/04 00:23:18;;;;;;;;;;;24.00;48.40;;;;;;1598057;73;1142;-66
2021/08/04 00:25:20;;;;;;;;;;;24.00;48.40;;;;;;1596324;73;766;-66
2021/08/04 00:27:24;;;;;;;;;;;24.00;48.30;;;;;;1610734;73;787;-66
2021/08/04 00:29:26;;;;;;;;;;;24.00;48.30;;;;;;1596772;73;620;-66
2021/08/04 00:31:28;;;;;;;;;;;24.00;48.30;;;;;;1597031;73;788;-66
2021/08/04 00:33:29;;;;;;;;;;;24.00;48.20;;;;;;1602505;73;1135;-66
2021/08/04 00:35:31;;;;;;;;;;;24.00;48.20;;;;;;1601643;73;798;-67
2021/08/04 00:37:33;;;;;;;;;;;24.00;48.30;;;;;;1596282;73;1940;-67
2021/08/04 00:39:35;;;;;;;;;;;24.00;48.20;;;;;;1604471;73;709;-66
2021/08/04 00:41:40;;;;;;;;;;;24.00;48.30;;;;;;1606727;73;757;-67
2021/08/04 00:43:42;;;;;;;;;;;24.00;48.30;;;;;;1606043;73;1123;-67
2021/08/04 00:45:44;;;;;;;;;;;24.00;48.20;;;;;;1583113;73;796;-67
2021/08/04 00:47:46;;;;;;;;;;;24.00;48.30;;;;;;1587883;73;879;-67
2021/08/04 00:49:48;;;;;;;;;;;24.00;48.30;;;;;;1599590;73;704;-67
2021/08/04 00:51:50;;;;;;;;;;;24.00;48.20;;;;;;1594530;73;781;-67
2021/08/04 00:53:51;;;;;;;;;;;24.00;48.20;;;;;;1594096;73;1088;-67
2021/08/04 00:55:54;;;;;;;;;;;24.00;48.10;;;;;;1601371;73;697;-66
2021/08/04 00:57:56;;;;;;;;;;;24.00;48.10;;;;;;1605092;73;1929;-67
2021/08/04 00:59:58;;;;;;;;;;;24.00;48.10;;;;;;1615398;73;739;-66
2021/08/04 01:02:04;;;;;;;;;;;24.00;48.00;;;;;;1607290;73;1127;-66
2021/08/04 01:04:10;;;;;;;;;;;24.00;47.90;;;;;;1613341;73;652;-66
2021/08/04 01:06:14;;;;;;;;;;;24.00;47.80;;;;;;1602943;73;725;-66
2021/08/04 01:08:17;;;;;;;;;;;24.00;47.80;;;;;;1595983;73;891;-67
2021/08/04 01:10:22;;;;;;;;;;;24.00;47.80;;;;;;1607461;73;768;-66
2021/08/04 01:12:29;;;;;;;;;;;24.00;47.80;;;;;;1596501;73;1144;-67
2021/08/04 01:14:31;;;;;;;;;;;24.00;47.80;;;;;;1593279;73;774;-67
2021/08/04 01:16:34;;;;;;;;;;;24.00;47.90;;;;;;1602480;73;1926;-68
2021/08/04 01:18:54;;;;;;;;;;;24.00;48.00;;;;;;1607743;73;930;-67
2021/08/04 01:20:55;;;;;;;;;;;24.00;48.20;;;;;;1606244;73;762;-67
2021/08/04 01:23:17;;;;;;;;;;;24.10;48.30;;;;;;1596364;73;1145;-67
2021/08/04 01:25:20;;;;;;;;;;;24.00;48.10;;;;;;1593807;73;1841;-68
2021/08/04 01:27:22;;;;;;;;;;;24.00;48.00;;;;;;1591443;73;789;-68
2021/08/04 01:29:24;;;;;;;;;;;24.00;48.00;;;;;;1598899;73;718;-66
2021/08/04 01:31:27;;;;;;;;;;;24.00;48.00;;;;;;1586163;73;713;-66
2021/08/04 01:33:29;;;;;;;;;;;24.00;47.80;;;;;;1584554;73;1134;-66
2021/08/04 01:35:31;;;;;;;;;;;24.00;47.90;;;;;;1587938;73;739;-65
2021/08/04 01:37:32;;;;;;;;;;;24.00;47.90;;;;;;1585502;73;1943;-65
2021/08/04 01:39:34;;;;;;;;;;;24.00;47.90;;;;;;1590772;73;636;-66
2021/08/04 01:41:36;;;;;;;;;;;24.10;48.00;;;;;;1599106;73;689;-67
2021/08/04 01:43:38;;;;;;;;;;;24.00;47.90;;;;;;1591933;73;1109;-66
2021/08/04 01:45:40;;;;;;;;;;;24.00;47.80;;;;;;1595948;73;796;-67
2021/08/04 01:47:42;;;;;;;;;;;24.10;48.00;;;;;;1593239;73;721;-67
2021/08/04 01:49:44;;;;;;;;;;;24.00;47.80;;;;;;1568113;74;2087;-60
2021/08/04 01:51:46;;;;;;;;;;;24.00;47.70;;;;;;1519757;77;682;-59
2021/08/04 01:53:48;;;;;;;;;;;24.00;47.70;;;;;;1540283;75;1182;-59
2021/08/04 01:55:50;;;;;;;;;;;24.00;47.60;;;;;;1534697;76;759;-59
2021/08/04 01:57:52;;;;;;;;;;;24.00;47.70;;;;;;1531449;76;1996;-59
2021/08/04 01:59:53;;;;;;;;;;;24.00;47.60;;;;;;1540083;75;775;-60
2021/08/04 02:01:57;;;;;;;;;;;24.00;47.50;;;;;;1537915;75;705;-59
2021/08/04 02:03:59;;;;;;;;;;;24.00;47.60;;;;;;1533731;75;1974;-59
2021/08/04 02:06:02;;;;;;;;;;;24.00;47.50;;;;;;1533137;75;726;-59
2021/08/04 02:08:05;;;;;;;;;;;24.00;47.50;;;;;;1538268;75;737;-60
2021/08/04 02:10:08;;;;;;;;;;;24.00;47.50;;;;;;1534855;75;760;-59
2021/08/04 02:12:10;;;;;;;;;;;24.00;47.50;;;;;;1534977;76;1131;-60
2021/08/04 02:14:13;;;;;;;;;;;24.00;47.50;;;;;;1537877;76;672;-60
2021/08/04 02:16:17;;;;;;;;;;;24.00;47.50;;;;;;1537270;75;748;-59
2021/08/04 02:18:19;;;;;;;;;;;24.00;47.40;;;;;;1535270;76;1943;-59
2021/08/04 02:20:25;;;;;;;;;;;24.00;47.30;;;;;;1534776;76;720;-60
2021/08/04 02:22:32;;;;;;;;;;;24.00;47.30;;;;;;1531423;75;1175;-58
2021/08/04 02:24:34;;;;;;;;;;;24.00;47.30;;;;;;1538654;75;794;-59
2021/08/04 02:26:36;;;;;;;;;;;24.00;47.20;;;;;;1545629;75;780;-59
2021/08/04 02:28:39;;;;;;;;;;;23.90;47.20;;;;;;1541992;76;722;-59
2021/08/04 02:30:41;;;;;;;;;;;23.90;47.30;;;;;;1541110;75;645;-60
2021/08/04 02:32:42;;;;;;;;;;;24.00;47.30;;;;;;1535323;75;1126;-59
2021/08/04 02:34:44;;;;;;;;;;;24.00;47.20;;;;;;1540837;75;764;-59
2021/08/04 02:36:46;;;;;;;;;;;24.00;47.20;;;;;;1540489;76;771;-60
2021/08/04 02:38:48;;;;;;;;;;;23.90;47.20;;;;;;1549371;76;1946;-59
2021/08/04 02:40:50;;;;;;;;;;;24.00;47.20;;;;;;1539718;75;772;-59
2021/08/04 02:42:52;;;;;;;;;;;23.90;47.30;;;;;;1540953;75;1139;-60
2021/08/04 02:44:54;;;;;;;;;;;24.00;47.30;;;;;;1544507;76;774;-60
2021/08/04 02:46:56;;;;;;;;;;;24.00;47.30;;;;;;1548582;76;764;-60
2021/08/04 02:48:58;;;;;;;;;;;24.00;47.40;;;;;;1541455;75;725;-60
2021/08/04 02:51:01;;;;;;;;;;;24.00;47.30;;;;;;1553969;75;772;-60
2021/08/04 02:53:03;;;;;;;;;;;24.00;47.40;;;;;;1541959;76;1740;-60
2021/08/04 02:55:06;;;;;;;;;;;24.00;47.60;;;;;;1535908;76;757;-60
2021/08/04 02:57:07;;;;;;;;;;;24.00;47.70;;;;;;1537599;76;1939;-60
2021/08/04 02:59:09;;;;;;;;;;;24.00;47.70;;;;;;1536373;76;912;-60
2021/08/04 03:01:11;;;;;;;;;;;24.10;47.80;;;;;;1538561;75;679;-60
2021/08/04 03:03:13;;;;;;;;;;;24.00;47.70;;;;;;1542087;76;1191;-60
2021/08/04 03:05:16;;;;;;;;;;;24.10;47.80;;;;;;1544805;76;724;-60
2021/08/04 03:07:18;;;;;;;;;;;24.00;47.80;;;;;;1539925;75;753;-60
2021/08/04 03:09:20;;;;;;;;;;;24.00;47.70;;;;;;1539034;76;781;-59
2021/08/04 03:11:21;;;;;;;;;;;24.10;47.80;;;;;;1540392;76;738;-60
2021/08/04 03:13:23;;;;;;;;;;;24.00;47.70;;;;;;1546807;75;1149;-60
2021/08/04 03:15:25;;;;;;;;;;;24.00;47.70;;;;;;1543307;75;735;-59
2021/08/04 03:17:27;;;;;;;;;;;24.00;47.70;;;;;;1539579;76;1978;-60
2021/08/04 03:19:29;;;;;;;;;;;24.10;47.80;;;;;;1539093;75;773;-59
2021/08/04 03:21:31;;;;;;;;;;;24.00;47.70;;;;;;1536275;75;903;-60
2021/08/04 03:23:33;;;;;;;;;;;24.10;47.80;;;;;;1536118;76;1107;-60
2021/08/04 03:25:35;;;;;;;;;;;24.00;47.70;;;;;;1538172;75;725;-60
2021/08/04 03:27:37;;;;;;;;;;;24.10;47.80;;;;;;1537447;75;788;-59
2021/08/04 03:29:39;;;;;;;;;;;24.10;47.80;;;;;;1535867;76;659;-60
2021/08/04 03:31:41;;;;;;;;;;;24.10;47.80;;;;;;1540556;76;725;-60
2021/08/04 03:33:42;;;;;;;;;;;24.00;47.60;;;;;;1536293;75;1108;-60
2021/08/04 03:35:44;;;;;;;;;;;24.00;47.70;;;;;;1536437;76;625;-60
2021/08/04 03:37:46;;;;;;;;;;;24.00;47.70;;;;;;1539582;75;1955;-60
2021/08/04 03:39:48;;;;;;;;;;;24.10;47.80;;;;;;1536786;76;812;-59
2021/08/04 03:41:50;;;;;;;;;;;24.10;47.80;;;;;;1540025;75;889;-61
2021/08/04 03:43:52;;;;;;;;;;;24.10;47.80;;;;;;1548356;75;1083;-59
2021/08/04 03:45:54;;;;;;;;;;;24.10;47.80;;;;;;1549405;76;728;-59
2021/08/04 03:47:55;;;;;;;;;;;24.00;47.80;;;;;;1547296;75;775;-60
2021/08/04 03:49:57;;;;;;;;;;;24.10;47.90;;;;;;1551749;76;713;-60
2021/08/04 03:51:59;;;;;;;;;;;24.00;47.80;;;;;;1550755;76;1154;-60
2021/08/04 03:54:01;;;;;;;;;;;24.00;47.80;;;;;;1544333;75;695;-59
2021/08/04 03:56:03;;;;;;;;;;;24.10;47.90;;;;;;1547873;76;775;-59
2021/08/04 03:58:05;;;;;;;;;;;24.00;47.70;;;;;;1549980;76;1932;-60
2021/08/04 04:00:07;;;;;;;;;;;24.10;47.80;;;;;;1545832;75;766;-60
2021/08/04 04:02:09;;;;;;;;;;;24.10;47.90;;;;;;1547823;76;1129;-60
2021/08/04 04:04:11;;;;;;;;;;;24.10;47.80;;;;;;1545422;75;792;-60
2021/08/04 04:06:13;;;;;;;;;;;24.00;47.70;;;;;;1542422;76;822;-61
2021/08/04 04:08:15;;;;;;;;;;;24.10;47.90;;;;;;1540615;75;734;-59
2021/08/04 04:10:17;;;;;;;;;;;24.10;48.00;;;;;;1537367;76;864;-60
2021/08/04 04:12:18;;;;;;;;;;;24.10;47.90;;;;;;1539482;75;1131;-60
2021/08/04 04:14:20;;;;;;;;;;;24.00;47.80;;;;;;1536949;76;770;-60
2021/08/04 04:16:22;;;;;;;;;;;24.00;47.80;;;;;;1550330;76;741;-59
2021/08/04 04:18:24;;;;;;;;;;;24.10;48.00;;;;;;1551676;75;1920;-60
2021/08/04 04:20:26;;;;;;;;;;;24.10;48.00;;;;;;1550056;75;650;-56
2021/08/04 04:22:28;;;;;;;;;;;24.10;47.80;;;;;;1542597;75;1190;-56
2021/08/04 04:24:30;;;;;;;;;;;24.10;47.80;;;;;;1553542;76;805;-61
2021/08/04 04:26:32;;;;;;;;;;;24.10;47.80;;;;;;1551625;76;702;-61
2021/08/04 04:28:34;;;;;;;;;;;24.10;47.90;;;;;;1553101;76;806;-60
2021/08/04 04:30:36;;;;;;;;;;;24.20;48.00;;;;;;1549335;75;720;-59
2021/08/04 04:32:38;;;;;;;;;;;24.10;47.90;;;;;;1546808;75;1150;-61
2021/08/04 04:34:39;;;;;;;;;;;24.00;47.70;;;;;;1550862;76;755;-60
2021/08/04 04:36:41;;;;;;;;;;;24.00;47.70;;;;;;1552437;76;740;-57
2021/08/04 04:38:43;;;;;;;;;;;24.00;47.70;;;;;;1552502;75;1938;-58
2021/08/04 04:40:45;;;;;;;;;;;24.10;47.90;;;;;;1541752;75;717;-57
2021/08/04 04:42:47;;;;;;;;;;;24.10;47.80;;;;;;1550260;76;1137;-59
2021/08/04 04:44:49;;;;;;;;;;;24.10;47.80;;;;;;1545367;76;900;-56
2021/08/04 04:46:51;;;;;;;;;;;24.00;47.70;;;;;;1553027;76;676;-58
2021/08/04 04:48:53;;;;;;;;;;;24.00;47.60;;;;;;1551650;75;786;-58
2021/08/04 04:50:55;;;;;;;;;;;24.10;47.70;;;;;;1551886;76;766;-59
2021/08/04 04:52:57;;;;;;;;;;;24.20;47.70;;;;;;1551560;76;1111;-60
2021/08/04 04:54:59;;;;;;;;;;;24.10;47.70;;;;;;1548149;75;769;-60
2021/08/04 04:57:01;;;;;;;;;;;24.10;47.70;;;;;;1548737;75;770;-58
2021/08/04 04:59:02;;;;;;;;;;;24.00;47.60;;;;;;1546093;75;1928;-57
2021/08/04 05:01:04;;;;;;;;;;;24.10;47.70;;;;;;1547143;76;744;-60
2021/08/04 05:03:06;;;;;;;;;;;24.00;47.60;;;;;;1550859;76;1137;-60
2021/08/04 05:05:09;;;;;;;;;;;24.00;47.60;;;;;;1551865;76;744;-55
2021/08/04 05:07:11;;;;;;;;;;;24.10;47.80;;;;;;1552154;75;714;-58
2021/08/04 05:09:12;;;;;;;;;;;24.00;47.80;;;;;;1545277;75;754;-59
2021/08/04 05:11:14;;;;;;;;;;;24.00;47.70;;;;;;1552289;76;814;-59
2021/08/04 05:13:16;;;;;;;;;;;24.10;47.80;;;;;;1554203;76;1138;-59
2021/08/04 05:15:18;;;;;;;;;;;24.10;47.70;;;;;;1553805;76;741;-58
2021/08/04 05:17:20;;;;;;;;;;;24.10;47.80;;;;;;1551388;75;790;-60
2021/08/04 05:19:22;;;;;;;;;;;24.10;47.80;;;;;;1541459;75;1936;-59
2021/08/04 05:21:24;;;;;;;;;;;24.10;47.80;;;;;;1549928;76;760;-56
2021/08/04 05:23:26;;;;;;;;;;;24.10;47.90;;;;;;1550977;76;1154;-59
2021/08/04 05:25:28;;;;;;;;;;;24.10;47.90;;;;;;1547418;76;766;-58
2021/08/04 05:27:30;;;;;;;;;;;24.00;47.90;;;;;;1545520;75;725;-58
2021/08/04 05:29:31;;;;;;;;;;;24.00;48.00;;;;;;1549981;76;786;-59
2021/08/04 05:31:33;;;;;;;;;;;24.10;48.20;;;;;;1546743;76;654;-59
2021/08/04 05:33:35;;;;;;;;;;;24.10;48.30;;;;;;1539319;76;1131;-60
2021/08/04 05:35:37;;;;;;;;;;;24.10;48.30;;;;;;1537779;75;713;-58
2021/08/04 05:37:39;;;;;;;;;;;24.10;48.30;;;;;;1537821;75;744;-56
2021/08/04 05:39:41;;;;;;;;;;;24.10;48.40;;;;;;1552766;76;1970;-56
2021/08/04 05:41:43;;;;;;;;;;;24.10;48.30;;;;;;1550725;76;751;-59
2021/08/04 05:43:44;;;;;;;;;;;24.10;48.50;;;;;;1552987;75;1129;-59
2021/08/04 05:45:46;;;;;;;;;;;24.10;47.60;;;;;;1543310;75;850;-59
2021/08/04 05:47:48;;;;;;;;;;;24.10;47.30;;;;;;1548547;75;784;-59
2021/08/04 05:49:50;;;;;;;;;;;24.20;47.10;;;;;;1551828;76;764;-59
2021/08/04 05:51:53;;;;;;;;;;;24.10;47.10;;;;;;1552695;76;679;-59
2021/08/04 05:53:54;;;;;;;;;;;24.00;46.90;;;;;;1553606;76;1141;-60
2021/08/04 05:55:56;;;;;;;;;;;24.00;46.80;;;;;;1548223;75;734;-59
2021/08/04 05:57:58;;;;;;;;;;;24.00;46.80;;;;;;1549210;76;796;-59
2021/08/04 06:00:00;;;;;;;;;;;24.00;47.20;;;;;;1549026;76;1936;-56
2021/08/04 06:02:02;;;;;;;;;;;24.00;47.30;;;;;;1547588;75;1130;-59
2021/08/04 06:04:04;;;;;;;;;;;24.10;47.10;;;;;;1551265;76;799;-60
2021/08/04 06:06:06;;;;;;;;;;;24.10;47.20;;;;;;1551874;75;738;-61
2021/08/04 06:08:11;;;;;;;;;;;24.00;47.00;;;;;;1546384;75;715;-58
2021/08/04 06:10:12;;;;;;;;;;;24.00;47.10;;;;;;1534090;76;730;-60
2021/08/04 06:12:14;;;;;;;;;;;24.00;47.10;;;;;;1548241;76;1149;-60
2021/08/04 06:14:16;;;;;;;;;;;24.00;46.90;;;;;;1543559;75;753;-59
2021/08/04 06:16:18;;;;;;;;;;;24.00;46.80;;;;;;1539662;75;760;-58
2021/08/04 06:18:20;;;;;;;;;;;24.00;46.80;;;;;;1551330;76;1946;-59
2021/08/04 06:20:22;;;;;;;;;;;23.90;46.80;;;;;;1554750;75;774;-59
2021/08/04 06:22:24;;;;;;;;;;;24.00;46.70;;;;;;1553805;75;1189;-60
2021/08/04 06:24:26;;;;;;;;;;;23.90;46.70;;;;;;1554386;75;861;-57
2021/08/04 06:26:28;;;;;;;;;;;23.90;46.70;;;;;;1554099;76;843;-57
2021/08/04 06:28:30;;;;;;;;;;;23.90;46.70;;;;;;1552865;76;786;-58
2021/08/04 06:30:32;;;;;;;;;;;23.80;46.70;;;;;;1553791;76;743;-60
2021/08/04 06:32:34;;;;;;;;;;;23.90;46.90;;;;;;1535758;75;1102;-57
2021/08/04 06:34:35;;;;;;;;;;;23.80;46.90;;;;;;1537311;76;678;-60
2021/08/04 06:36:37;;;;;;;;;;;23.80;46.90;;;;;;1540019;76;806;-57
2021/08/04 06:38:39;;;;;;;;;;;23.80;47.00;;;;;;1535791;76;1940;-58
2021/08/04 06:40:41;;;;;;;;;;;23.80;46.90;;;;;;1535826;76;711;-57
2021/08/04 06:42:43;;;;;;;;;;;23.70;46.90;;;;;;1538728;75;1162;-58
2021/08/04 06:44:45;;;;;;;;;;;23.70;46.90;;;;;;1535455;76;830;-60
2021/08/04 06:46:47;;;;;;;;;;;23.70;47.00;;;;;;1544791;76;760;-61
2021/08/04 06:48:49;;;;;;;;;;;23.70;47.10;;;;;;1551495;76;726;-60
2021/08/04 06:50:51;;;;;;;;;;;23.70;47.10;;;;;;1553943;76;784;-60
2021/08/04 06:52:53;;;;;;;;;;;23.70;47.10;;;;;;1545000;75;1121;-60
2021/08/04 06:54:55;;;;;;;;;;;23.60;46.90;;;;;;1549551;75;713;-59
2021/08/04 06:56:57;;;;;;;;;;;23.60;46.90;;;;;;1552734;76;738;-57
2021/08/04 06:58:59;;;;;;;;;;;23.70;47.10;;;;;;1552440;76;1942;-58
2021/08/04 07:01:00;;;;;;;;;;;23.70;47.20;;;;;;1551301;76;670;-59
2021/08/04 07:03:02;;;;;;;;;;;23.60;47.10;;;;;;1545028;75;1176;-57
2021/08/04 07:05:05;;;;;;;;;;;23.70;47.30;;;;;;1548859;75;703;-57
2021/08/04 07:07:07;;;;;;;;;;;23.60;47.20;;;;;;1551385;75;745;-58
2021/08/04 07:09:08;;;;;;;;;;;23.70;47.40;;;;;;1552966;75;820;-57
2021/08/04 07:11:10;;;;;;;;;;;23.70;47.50;;;;;;1553797;75;686;-59
2021/08/04 07:13:12;;;;;;;;;;;23.60;47.50;;;;;;1552341;76;1147;-59
2021/08/04 07:15:14;;;;;;;;;;;23.60;47.30;;;;;;1554446;76;766;-59
2021/08/04 07:17:16;;;;;;;;;;;23.60;47.30;;;;;;1550094;75;744;-59
2021/08/04 07:19:18;;;;;;;;;;;23.60;47.40;;;;;;1539036;75;1955;-59
2021/08/04 07:21:20;;;;;;;;;;;23.60;47.30;;;;;;1535288;75;647;-58
2021/08/04 07:23:22;;;;;;;;;;;23.60;47.30;;;;;;1541599;76;1180;-56
2021/08/04 07:25:24;;;;;;;;;;;23.60;47.40;;;;;;1539597;76;736;-58
2021/08/04 07:27:26;;;;;;;;;;;23.60;47.40;;;;;;1543989;76;775;-58
2021/08/04 07:29:27;;;;;;;;;;;23.60;47.40;;;;;;1543834;75;803;-59
2021/08/04 07:31:29;;;;;;;;;;;23.60;47.50;;;;;;1539454;76;835;-60
2021/08/04 07:33:32;;;;;;;;;;;23.60;47.40;;;;;;1552623;75;1128;-59
2021/08/04 07:35:34;;;;;;;;;;;23.60;47.20;;;;;;1550607;75;779;-57
2021/08/04 07:37:36;;;;;;;;;;;23.60;47.20;;;;;;1542997;75;760;-60
2021/08/04 07:39:38;;;;;;;;;;;23.50;47.20;;;;;;1564714;75;1942;-62
2021/08/04 07:41:40;;;;;;;;;;;23.50;47.40;;;;;;1547181;76;729;-59
2021/08/04 07:43:42;;;;;;;;;;;23.50;47.40;;;;;;1553955;75;1087;-58
2021/08/04 07:45:44;;;;;;;;;;;23.50;47.10;;;;;;1549584;76;829;-57
2021/08/04 07:47:46;;;;;;;;;;;23.50;47.10;;;;;;1537892;75;928;-60
2021/08/04 07:49:48;;;;;;;;;;;23.50;47.20;;;;;;1550783;76;818;-57
2021/08/04 07:51:50;;;;;;;;;;;23.50;47.20;;;;;;1547888;76;731;-61
2021/08/04 07:53:52;;;;;;;;;;;23.50;46.90;;;;;;1577852;71;223580;-75
2021/08/04 07:55:54;;;;;;;;;;;23.40;46.90;;;;;;1567454;74;763;-75
2021/08/04 07:57:56;;;;;;;;;;;23.50;47.20;;;;;;1575591;74;806;-76
2021/08/04 07:59:58;;;;;;;;;;;23.40;47.10;;;;;;1573218;74;1926;-76
2021/08/04 08:02:00;;;;;;;;;;;23.40;47.10;;;;;;1571521;74;679;-77
2021/08/04 08:04:02;;;;;;;;;;;23.50;47.10;;;;;;1561628;74;749;-77
2021/08/04 08:06:04;;;;;;;;;;;23.40;47.20;;;;;;1572414;70;218791;-63
2021/08/04 08:08:06;;;;;;;;;;;23.50;47.10;;;;;;1604147;72;677;-62
2021/08/04 08:10:08;;;;;;;;;;;23.40;47.00;;;;;;1591384;72;741;-63
2021/08/04 08:12:10;;;;;;;;;;;23.40;47.00;;;;;;1593346;72;1167;-61
2021/08/04 08:14:12;;;;;;;;;;;23.40;47.10;;;;;;1596876;72;909;-63
2021/08/04 08:16:14;;;;;;;;;;;23.40;47.10;;;;;;1608785;72;946;-62
2021/08/04 08:18:15;;;;;;;;;;;23.30;47.00;;;;;;1600968;72;708;-62
2021/08/04 08:20:19;;;;;;;;;;;23.40;47.10;;;;;;1619733;72;1938;-62
2021/08/04 08:22:21;;;;;;;;;;;23.40;47.10;;;;;;1607339;72;1179;-61
2021/08/04 08:24:23;;;;;;;;;;;23.40;47.20;;;;;;1621816;72;819;-63
2021/08/04 08:26:25;;;;;;;;;;;23.30;47.20;;;;;;1603460;72;786;-63
2021/08/04 08:28:27;;;;;;;;;;;23.40;47.10;;;;;;1620835;72;692;-63
2021/08/04 08:30:29;;;;;;;;;;;23.40;47.10;;;;;;1624902;72;711;-61
2021/08/04 08:32:30;;;;;;;;;;;23.30;47.00;;;;;;1616740;71;1116;-61
2021/08/04 08:34:32;;;;;;;;;;;23.40;47.00;;;;;;1609319;72;727;-63
2021/08/04 08:36:35;;;;;;;;;;;23.40;47.10;;;;;;1613348;71;625;-61
2021/08/04 08:38:37;;;;;;;;;;;23.30;47.10;;;;;;1610075;72;752;-62
2021/08/04 08:40:39;;;;;;;;;;;23.30;47.10;;;;;;1606606;72;1941;-63
2021/08/04 08:42:41;;;;;;;;;;;23.40;47.20;;;;;;1611736;72;1139;-63
2021/08/04 08:44:43;;;;;;;;;;;23.40;47.20;;;;;;1608171;72;816;-62
2021/08/04 08:46:45;;;;;;;;;;;23.40;47.10;;;;;;1612691;72;754;-67
2021/08/04 08:48:49;;;;;;;;;;;23.40;47.20;;;;;;1610384;72;814;-62
2021/08/04 08:50:51;;;;;;;;;;;23.40;47.10;;;;;;1619453;72;689;-64
2021/08/04 08:52:56;;;;;;;;;;;23.40;47.10;;;;;;1615407;72;1129;-62
2021/08/04 08:55:01;;;;;;;;;;;23.40;47.20;;;;;;1608282;72;953;-62
2021/08/04 08:57:03;;;;;;;;;;;23.40;47.10;;;;;;1616820;72;658;-64
2021/08/04 08:59:05;;;;;;;;;;;23.40;47.10;;;;;;1603659;72;715;-66
2021/08/04 09:01:07;;;;;;;;;;;23.30;47.10;;;;;;1611108;72;1940;-64
2021/08/04 09:03:10;;;;;;;;;;;23.40;47.10;;;;;;1598378;72;1186;-63
2021/08/04 09:05:13;;;;;;;;;;;23.40;47.10;;;;;;1597006;72;717;-63
2021/08/04 09:07:15;;;;;;;;;;;23.30;47.10;;;;;;1600959;72;747;-66
2021/08/04 09:09:21;;;;;;;;;;;23.30;47.10;;;;;;1568670;74;1189;-62
2021/08/04 09:11:23;;;;;;;;;;;23.40;47.20;;;;;;1595326;72;786;-61
2021/08/04 09:13:34;;;;;;;;;;;23.30;47.20;;;;;;1601061;73;1153;-62
2021/08/04 09:15:37;;;;;;;;;;;23.40;47.30;;;;;;1611291;72;703;-64
2021/08/04 09:17:39;;;;;;;;;;;23.40;47.10;;;;;;1601915;72;774;-62
2021/08/04 09:19:42;;;;;;;;;;;23.40;47.10;;;;;;1570894;73;1959;-66
2021/08/04 09:21:44;;;;;;;;;;;23.40;47.10;;;;;;1596383;72;746;-65
2021/08/04 09:23:47;;;;;;;;;;;23.30;47.10;;;;;;1601579;72;1099;-63
2021/08/04 09:26:01;;;;;;;;;;;23.30;47.20;;;;;;1612711;72;801;-61
2021/08/04 09:28:03;;;;;;;;;;;23.30;47.20;;;;;;1591288;72;735;-62
2021/08/04 09:30:05;;;;;;;;;;;23.20;47.10;;;;;;1607688;72;775;-63
2021/08/04 09:32:07;;;;;;;;;;;23.30;47.10;;;;;;1598579;72;1193;-63
2021/08/04 09:34:29;;;;;;;;;;;23.30;47.10;;;;;;1606469;72;745;-63
2021/08/04 09:36:31;;;;;;;;;;;23.30;47.10;;;;;;1598713;73;775;-62
2021/08/04 09:38:33;;;;;;;;;;;23.40;47.10;;;;;;1605631;72;791;-62
2021/08/04 09:40:35;;;;;;;;;;;23.30;46.90;;;;;;1606202;72;1937;-63
2021/08/04 09:42:50;;;;;;;;;;;23.30;47.00;;;;;;1590034;72;1181;-63
2021/08/04 09:44:56;;;;;;;;;;;23.30;47.00;;;;;;1586981;72;700;-62
2021/08/04 09:47:08;;;;;;;;;;;23.30;46.90;;;;;;1585363;72;1803;-61
2021/08/04 09:49:13;;;;;;;;;;;23.20;46.70;;;;;;1581904;72;731;-62
2021/08/04 09:51:19;;;;;;;;;;;23.20;46.60;;;;;;1583968;72;752;-63
2021/08/04 09:53:31;;;;;;;;;;;23.20;46.60;;;;;;1591547;72;1048;-64
2021/08/04 09:55:33;;;;;;;;;;;23.20;46.50;;;;;;1596264;72;785;-63
2021/08/04 09:57:38;;;;;;;;;;;23.30;46.70;;;;;;1591974;72;686;-63
2021/08/04 09:59:40;;;;;;;;;;;23.30;46.90;;;;;;1602129;72;1925;-62
2021/08/04 10:01:42;;;;;;;;;;;23.20;47.10;;;;;;1610838;72;788;-62
2021/08/04 10:04:00;;;;;;;;;;;23.30;47.20;;;;;;1613737;71;1110;-62
2021/08/04 10:06:02;;;;;;;;;;;23.30;47.20;;;;;;1605282;72;907;-62
2021/08/04 10:08:09;;;;;;;;;;;23.20;47.00;;;;;;1602475;72;816;-61
2021/08/04 10:10:11;;;;;;;;;;;23.30;47.10;;;;;;1603411;72;712;-61
2021/08/04 10:12:13;;;;;;;;;;;23.30;46.90;;;;;;1611939;72;1156;-60
2021/08/04 10:14:16;;;;;;;;;;;23.30;46.80;;;;;;1571954;74;741;-60
2021/08/04 10:16:18;;;;;;;;;;;23.20;46.50;;;;;;1602708;72;700;-60
2021/08/04 10:18:24;;;;;;;;;;;23.20;46.50;;;;;;1598232;72;770;-58
2021/08/04 10:20:26;;;;;;;;;;;23.20;46.60;;;;;;1594165;72;1931;-58
2021/08/04 10:22:27;;;;;;;;;;;23.20;47.60;;;;;;1597185;72;1145;-58
2021/08/04 10:24:29;;;;;;;;;;;23.10;47.10;;;;;;1604240;72;750;-59
2021/08/04 10:26:31;;;;;;;;;;;23.10;47.20;;;;;;1599798;72;906;-60
2021/08/04 10:28:33;;;;;;;;;;;23.20;47.10;;;;;;1608320;72;762;-59
2021/08/04 10:30:35;;;;;;;;;;;23.10;47.10;;;;;;1611529;73;743;-58
2021/08/04 10:32:37;;;;;;;;;;;23.10;47.30;;;;;;1599789;73;1137;-58
2021/08/04 10:34:39;;;;;;;;;;;23.10;47.30;;;;;;1606235;72;813;-59
2021/08/04 10:36:44;;;;;;;;;;;23.10;47.30;;;;;;1595844;72;732;-57
2021/08/04 10:38:50;;;;;;;;;;;23.10;47.30;;;;;;1611631;72;755;-59
2021/08/04 10:41:10;;;;;;;;;;;23.10;47.10;;;;;;1607071;72;1944;-60
2021/08/04 10:43:13;;;;;;;;;;;23.10;47.00;;;;;;1614614;72;1093;-60
2021/08/04 10:45:28;;;;;;;;;;;23.10;47.10;;;;;;1581594;73;1116;-57
2021/08/04 10:47:30;;;;;;;;;;;23.00;46.90;;;;;;1619029;72;746;-58
2021/08/04 10:49:33;;;;;;;;;;;23.10;47.20;;;;;;1601472;72;790;-59
2021/08/04 10:51:35;;;;;;;;;;;23.10;47.30;;;;;;1614415;72;918;-58
2021/08/04 10:53:39;;;;;;;;;;;23.10;47.10;;;;;;1608180;72;1115;-58
2021/08/04 10:55:42;;;;;;;;;;;23.10;46.90;;;;;;1595427;72;1487;-57
2021/08/04 10:57:55;;;;;;;;;;;23.10;46.60;;;;;;1605465;72;1825;-59
2021/08/04 10:59:59;;;;;;;;;;;23.10;46.60;;;;;;1578955;72;968;-58
2021/08/04 11:02:05;;;;;;;;;;;23.10;46.70;;;;;;1598725;72;1710;-59
2021/08/04 11:04:07;;;;;;;;;;;23.10;46.80;;;;;;1600889;72;705;-58
2021/08/04 11:06:10;;;;;;;;;;;23.10;46.70;;;;;;1615552;72;706;-60
2021/08/04 11:08:20;;;;;;;;;;;23.10;46.60;;;;;;1610913;72;736;-59
2021/08/04 11:10:19;;;;;;;;;;;23.10;46.70;;;;;;1604448;72;1168;-58
2021/08/04 11:12:21;;;;;;;;;;;23.00;46.80;;;;;;1568489;73;1201;-59
2021/08/04 11:14:44;;;;;;;;;;;23.00;46.80;;;;;;1602059;72;814;-60
2021/08/04 11:16:47;;;;;;;;;;;23.10;46.30;;;;;;1612130;72;796;-60
2021/08/04 11:19:02;;;;;;;;;;;23.10;46.40;;;;;;1610981;72;1882;-59
2021/08/04 11:21:13;;;;;;;;;;;23.10;46.50;;;;;;1587742;72;1933;-58
2021/08/04 11:23:15;;;;;;;;;;;23.00;46.30;;;;;;1612446;72;1153;-59
2021/08/04 11:25:35;;;;;;;;;;;23.00;46.40;;;;;;1605912;72;779;-59
2021/08/04 11:27:39;;;;;;;;;;;23.00;46.70;;;;;;1586349;73;1231;-60
2021/08/04 11:29:44;;;;;;;;;;;22.90;46.60;;;;;;1599503;72;1544;-59
2021/08/04 11:31:47;;;;;;;;;;;23.00;46.60;;;;;;1599078;72;736;-59
2021/08/04 11:33:49;;;;;;;;;;;23.00;46.80;;;;;;1584798;72;1612;-58
2021/08/04 11:36:08;;;;;;;;;;;23.00;46.90;;;;;;1602711;72;727;-59
2021/08/04 11:38:10;;;;;;;;;;;23.00;46.80;;;;;;1598468;72;760;-59
2021/08/04 11:40:12;;;;;;;;;;;23.00;46.70;;;;;;1597572;72;1940;-60
2021/08/04 11:42:14;;;;;;;;;;;23.00;46.80;;;;;;1595624;72;1087;-57
2021/08/04 11:44:22;;;;;;;;;;;23.00;46.70;;;;;;1610238;72;767;-58
2021/08/04 11:46:34;;;;;;;;;;;23.00;46.50;;;;;;1595133;72;746;-59
2021/08/04 11:48:49;;;;;;;;;;;23.00;46.60;;;;;;1610619;72;764;-57
2021/08/04 11:50:51;;;;;;;;;;;23.00;46.70;;;;;;1604115;72;694;-62
2021/08/04 11:52:53;;;;;;;;;;;23.00;46.60;;;;;;1595094;72;1142;-62
2021/08/04 11:54:58;;;;;;;;;;;22.90;46.20;;;;;;1596729;72;809;-63
2021/08/04 11:57:00;;;;;;;;;;;23.00;46.40;;;;;;1592613;72;773;-63
2021/08/04 11:59:03;;;;;;;;;;;22.90;46.70;;;;;;1585657;73;778;-63
2021/08/04 12:01:17;;;;;;;;;;;22.90;47.30;;;;;;1590014;72;1924;-61
2021/08/04 12:03:19;;;;;;;;;;;22.80;46.70;;;;;;1614011;72;1197;-60
2021/08/04 12:05:21;;;;;;;;;;;22.80;46.90;;;;;;1594485;72;710;-60
2021/08/04 12:07:26;;;;;;;;;;;22.70;46.80;;;;;;1610234;72;792;-60
2021/08/04 12:09:36;;;;;;;;;;;22.70;46.50;;;;;;1598605;72;1077;-62
2021/08/04 12:11:41;;;;;;;;;;;22.80;47.00;;;;;;1594942;72;801;-62
2021/08/04 12:13:45;;;;;;;;;;;22.70;47.90;;;;;;1603694;72;1094;-59